Terminal Aerodrome Forecast
Issued by NWS

Home | Current Version | Previous Version | Text Only | Print | Product List | Glossary On
Versions: 1 2 3 4 5 6 7 8 9 10 11 12 13 14 15 16 17 18 19 20 21 22 23 24 25 26 27 28 29 30 31 32 33 34 35 36
000
FTUS41 KBOX 151735
TAFBAF
TAF
KBAF 151735Z 1518/1618 19013G23KT P6SM FEW250
     FM160000 20010KT P6SM BKN150
     FM160500 20006KT P6SM OVC090
     FM160600 20006KT P6SM VCSH OVC080
     FM161300 19005KT P6SM SHRA OVC035
     FM161400 19005KT 5SM SHRA OVC025
     FM161600 18006KT 2SM SHRA OVC010=

USA.gov is the U.S. government's official web portal to all federal, state and local government web resources and services.